Welcome to the updated website with new and more accurate equipment. Established 2007


Active alerts


No alerts

Local Station more information Local Station


Mount Mesnard more information Mount Mesnard


Visit our other weather sites:

Template documentation
and downloads

And another site


CBI


Nearby METAR Reports

   
KSAW - Sawyer, Michigan
Updated: 22-05-2018 14:50
Clear  
Clear  
   Wind: North 3.5 mph
Wind: North 3.5 mph
Temperature: 73.4°F
Dew Point: 30.2°F
Humidity: 20%
Barometer: 30.01 inHg
Clouds: Clear
Visibility: 10 mi
Cloud details: Clear
KSAW 221850Z 01003KT 10SM SKC 23/M01 A3001
KESC - Escanaba, Michigan
Updated: 22-05-2018 14:56
Clear  
Clear  
   Wind: South 11.5 mph
Wind: South 11.5 mph
Temperature: 64.4°F
Dew Point: 50°F
Humidity: 60%
Barometer: 30.02 inHg
Clouds: Clear
Visibility: 10 mi
Cloud details: Clear
KESC 221856Z AUTO 17010KT 10SM CLR 18/10 A3002 RMK AO2 SLP189 T01780100
KIMT - Iron Mountain, MI
Updated: 22-05-2018 14:54
Clear  
Clear  
   Wind: NNW 10.4 mph
Wind: NNW 10.4 mph
Temperature: 78.8°F
Dew Point: 41°F
Humidity: 26%
Barometer: 29.99 inHg
Clouds: Clear
Visibility: 10 mi
Cloud details: Clear
KIMT 221854Z AUTO 34009KT 10SM CLR 26/05 A2999 RMK AO2 SLP156 T02610050
KGRB - Green Bay, WI
Updated: 22-05-2018 15:40
Mostly Cloudy  
Mostly Cloudy  
   Wind: West 6.9 mph
Wind: West 6.9 mph
Temperature: 71.6°F
Dew Point: 59°F
Humidity: 65%
Barometer: 30.04 inHg
Clouds: Mostly Cloudy
Visibility: 10 mi
Cloud details: Partly Cloudy 823 m,
Mostly Cloudy 1036 m
KGRB 221940Z 26006KT 10SM SCT027 BKN034 22/15 A3004 RMK AO2 T02220150
KDET - Detroit, MI
Updated: 22-05-2018 14:53
Overcast  
Overcast  
   Wind: varies 6.9 mph
Wind: varies 6.9 mph
Temperature: 71.6°F
Dew Point: 60.8°F
Humidity: 69%
Barometer: 29.94 inHg
Clouds: Overcast
Visibility: 9 mi
Cloud details: Mostly Cloudy 1006 m,
Overcast 1311 m
KDET 221853Z VRB06KT 9SM BKN033 OVC043 22/16 A2994 RMK AO2 SLP137 T02170156
 

Script developed by  Saratoga-weather.org Adapted for the template by  Weerstation Leuven

You find our weather info also at:

Weather Underground

Midwestern Weather Network

WeatherlinkIP

Citizen Weather Observer Program (CWOP)

Equipment we use:

Weather-station
Davis VP2

Weather-program
Davis Weatherlink.Com

Davis VP2

Davis Weatherlink.Com